Terminal Aerodrome Forecast
Issued by NWS

Home | Current Version | Previous Version | Graphics & Text | Print | Product List | Glossary On
Versions: 1 2 3 4 5 6 7 8 9 10 11 12 13 14 15
000
FTUS43 KGRB 301700
TAFMTW
TAF
KMTW 301736Z 3018/3118 VRB03KT P6SM SCT035
      TEMPO 3018/3020 BKN035
     FM302100 10004KT P6SM FEW045
     FM302300 15005KT P6SM VCTS BKN040CB
     FM310800 24003KT 6SM BR SCT080
     FM311300 27006KT P6SM SCT040 SCT100=

USA.gov is the U.S. government's official web portal to all federal, state and local government web resources and services.